Latest Weather Observations for Perth Airport

IDW60901

Issued at 2:41 pm WST Tuesday 7 July 2015 (issued every 10 minutes, with the page automatically refreshed every 10 minutes)

About weather observations | Map of Perth area stations | Latest observations for Perth area | Other Formats
Station Details ID: 009021 Name: PERTH AIRPORT Lat: -31.93 Lon: 115.98 Height: 15.4 m
Data from the previous 72 hours. | See also: Recent months at Perth Airport
Date/Time
WST
Tmp

°C
App
Tmp
°C
Dew
Point
°C
Rel
Hum
%
Delta-T

°C
Wind Press
QNH
hPa
Press
MSL
hPa
Rain
since
9 am
mm
Dir
 
Spd
km/h
Gust
km/h
Spd
kts
Gust
kts
07/02:30pm 17.8 16.7 15.4 86 1.4 WSW 15 20 8 11 1017.8 - 3.4
07/02:12pm 16.9 15.3 15.0 88 1.1 W 17 26 9 14 1017.8 - 3.4
07/02:00pm 17.7 15.8 15.7 88 1.2 SW 20 28 11 15 1017.9 - 3.4
07/01:58pm 17.7 16.7 15.5 87 1.3 W 15 24 8 13 1017.9 - 3.4
07/01:30pm 16.9 15.8 15.4 91 0.9 W 15 24 8 13 1018.2 - 3.4
07/01:26pm 16.8 15.3 15.4 91 0.8 W 17 24 9 13 1018.3 - 3.4
07/01:20pm 17.0 16.1 15.8 93 0.7 NW 15 22 8 12 1018.4 - 3.2
07/01:15pm 17.5 17.3 15.8 90 1.0 N 11 19 6 10 1018.2 - 2.2
07/01:12pm 17.4 17.2 15.7 90 1.0 N 11 15 6 8 1018.2 - 2.0
07/01:00pm 17.3 17.1 15.6 90 1.0 N 11 15 6 8 1018.4 - 2.0
07/12:41pm 16.5 15.9 15.6 94 0.5 NNW 13 17 7 9 1018.7 - 2.0
07/12:30pm 16.2 15.5 15.3 94 0.5 NNW 13 17 7 9 1018.8 - 2.0
07/12:00pm 16.0 15.2 15.0 94 0.6 NNW 13 19 7 10 1019.2 1019.2 1.0
07/11:52am 16.2 14.5 14.8 91 0.8 N 17 26 9 14 1019.4 - 0.4
07/11:46am 16.5 15.6 14.8 90 1.0 N 13 26 7 14 1019.4 - 0.2
07/11:30am 16.2 15.6 14.6 90 0.9 N 11 19 6 10 1019.5 - 0.2
07/11:25am 16.1 15.5 14.5 90 0.9 N 11 15 6 8 1019.5 - 0.2
07/11:15am 16.3 14.8 14.2 87 1.2 N 15 22 8 12 1019.7 - 0.0
07/11:10am 16.6 15.0 13.9 84 1.5 N 15 22 8 12 1019.7 - 0.0
07/10:50am 16.3 14.3 14.0 86 1.3 N 17 22 9 12 1019.9 - 0.0
07/10:30am 16.2 13.8 13.9 86 1.3 N 19 26 10 14 1020.1 - 0.0
07/10:00am 14.8 13.0 13.4 91 0.8 N 15 17 8 9 1020.3 - 0.0
07/09:49am 14.6 12.7 13.1 91 0.8 N 15 17 8 9 1020.3 - 0.0
07/09:30am 14.5 12.5 12.7 89 1.0 N 15 19 8 10 1020.3 - 0.0
07/09:00am 14.4 11.7 12.8 90 0.9 N 19 24 10 13 1019.9 1019.9 4.2
07/08:30am 13.9 11.5 12.8 93 0.6 NNE 17 20 9 11 1019.9 - 4.2
07/08:00am 13.7 12.6 13.0 96 0.4 NNE 11 15 6 8 1019.9 - 4.2
07/07:41am 13.5 12.4 13.0 97 0.3 NNE 11 15 6 8 1019.8 - 4.2
07/07:30am 13.5 12.4 13.0 97 0.3 N 11 13 6 7 1019.7 - 4.2
07/07:25am 13.5 12.7 13.0 97 0.3 NNE 9 13 5 7 1019.9 - 3.8
07/07:00am 13.4 11.8 12.7 95 0.4 NE 13 15 7 8 1019.5 - 3.8
07/06:43am 13.3 11.7 12.7 96 0.3 NE 13 20 7 11 1019.6 - 3.8
07/06:30am 13.3 12.8 12.7 96 0.3 NNE 7 11 4 6 1019.7 - 3.6
07/06:10am 13.3 12.4 12.7 96 0.3 NNE 9 13 5 7 1019.4 - 3.4
07/05:30am 13.2 12.7 12.8 97 0.2 NNE 7 9 4 5 1019.2 - 3.4
07/05:00am 13.3 12.5 12.9 97 0.2 NNE 9 11 5 6 1019.1 - 3.4
07/04:30am 13.4 11.9 13.2 99 0.1 N 13 17 7 9 1019.2 - 3.4
07/04:00am 13.6 13.0 13.4 99 0.1 NE 9 13 5 7 1019.4 - 3.4
07/03:37am 13.5 12.5 13.3 99 0.1 NE 11 15 6 8 1019.6 - 3.4
07/03:30am 13.6 12.6 13.4 99 0.1 NE 11 13 6 7 1019.7 - 3.4
07/03:15am 13.6 13.0 13.4 99 0.1 NE 9 11 5 6 1019.8 - 3.4
07/03:00am 13.6 13.0 13.4 99 0.1 NE 9 11 5 6 1020.0 1020.0 3.4
07/02:30am 13.0 12.0 12.4 96 0.3 NNE 9 11 5 6 1020.0 - 3.4
07/02:00am 13.2 12.7 12.8 97 0.2 N 7 9 4 5 1020.3 - 3.4
07/01:35am 13.7 13.4 13.3 97 0.2 N 7 7 4 4 1020.3 - 3.4
07/01:30am 13.7 13.5 13.5 99 0.1 N 7 7 4 4 1020.3 - 3.4
07/01:00am 14.3 14.3 14.1 99 0.1 N 7 9 4 5 1020.5 - 3.4
07/12:44am 14.0 13.4 13.6 97 0.2 N 9 9 5 5 1020.5 - 3.4
 
Date/Time
WST
Tmp

°C
App
Tmp
°C
Dew
Point
°C
Rel
Hum
%
Delta-T

°C
Wind Press
QNH
hPa
Press
MSL
hPa
Rain
since
9 am
mm
Dir
 
Spd
km/h
Gust
km/h
Spd
kts
Gust
kts
06/11:30pm 14.8 14.5 14.4 97 0.2 NNE 9 11 5 6 1020.6 - 3.4
06/11:00pm 15.2 14.7 14.8 97 0.2 NNE 11 13 6 7 1020.6 - 3.4
06/10:30pm 15.1 14.9 14.7 97 0.2 NNE 9 9 5 5 1020.7 - 3.4
06/10:26pm 15.1 15.3 14.7 97 0.2 NNE 7 9 4 5 1020.7 - 3.4
06/10:00pm 15.3 15.2 15.0 98 0.2 NNE 9 11 5 6 1020.8 - 3.4
06/09:30pm 15.3 15.6 15.0 98 0.2 NNE 7 9 4 5 1021.0 - 3.4
06/09:00pm 15.4 15.4 15.1 98 0.2 NNE 9 9 5 5 1021.1 1021.1 3.4
06/08:56pm 15.4 15.7 15.1 98 0.2 NNE 7 9 4 5 1021.1 - 3.4
06/08:44pm 15.3 15.6 15.0 98 0.2 NNE 7 9 4 5 1021.1 - 3.4
06/08:30pm 15.3 15.5 14.8 97 0.3 NNE 7 7 4 4 1021.1 - 3.4
06/08:00pm 15.6 16.0 15.3 98 0.2 N 7 11 4 6 1021.1 - 3.4
06/07:30pm 15.5 15.9 15.2 98 0.2 NNE 7 11 4 6 1021.1 - 3.4
06/07:00pm 16.0 16.5 15.5 97 0.3 N 7 9 4 5 1020.9 - 3.4
06/06:30pm 16.1 15.9 15.6 97 0.3 N 11 13 6 7 1020.7 - 3.4
06/05:46pm 16.4 17.1 15.5 94 0.5 NW 6 9 3 5 1020.6 - 3.2
06/05:30pm 16.4 17.1 15.7 96 0.4 W 6 9 3 5 1020.5 - 3.0
06/05:17pm 16.5 16.6 15.6 94 0.5 WNW 9 13 5 7 1020.5 - 3.0
06/05:00pm 16.6 17.2 15.9 96 0.4 NW 7 9 4 5 1020.4 - 2.8
06/04:50pm 16.6 16.9 15.9 96 0.4 NNW 9 15 5 8 1020.4 - 2.6
06/04:41pm 16.7 17.3 15.8 94 0.5 NNW 7 9 4 5 1020.4 - 2.0
06/04:30pm 16.7 17.3 15.8 94 0.5 NNW 7 7 4 4 1020.4 - 1.8
06/04:25pm 16.7 17.3 15.7 94 0.6 NNW 7 13 4 7 1020.4 - 1.8
06/04:09pm 16.5 16.6 15.6 94 0.5 NNW 9 13 5 7 1020.4 - 1.8
06/04:00pm 16.5 16.2 15.5 94 0.6 N 11 13 6 7 1020.4 - 1.8
06/03:52pm 16.4 16.1 15.5 94 0.5 N 11 13 6 7 1020.3 - 1.6
06/03:30pm 16.6 15.6 15.7 94 0.5 N 15 19 8 10 1020.4 - 1.6
06/03:10pm 16.6 15.3 15.7 94 0.5 N 17 22 9 12 1020.3 - 1.4
06/03:00pm 16.7 16.1 15.7 94 0.6 N 13 17 7 9 1020.3 1020.3 1.0
06/02:51pm 16.7 16.0 15.3 91 0.8 NNW 13 19 7 10 1020.4 - 0.6
06/02:48pm 16.8 16.1 15.4 91 0.8 NNW 13 17 7 9 1020.4 - 0.6
06/02:30pm 16.6 15.9 15.4 93 0.7 NNW 13 19 7 10 1020.3 - 0.6
06/02:00pm 16.7 14.6 14.8 88 1.1 WNW 19 30 10 16 1020.3 - 0.6
06/01:53pm 17.5 15.6 14.2 81 1.9 WNW 17 22 9 12 1020.2 - 0.0
06/01:30pm 18.6 15.9 12.9 69 3.2 NNW 19 28 10 15 1020.3 - 0.0
06/01:00pm 19.0 16.2 12.5 66 3.6 N 19 26 10 14 1020.5 - 0.0
06/12:30pm 19.6 17.2 12.8 65 3.8 N 17 22 9 12 1021.0 - 0.0
06/12:00pm 18.7 16.3 12.8 68 3.3 N 17 22 9 12 1021.6 1021.6 0.0
06/11:30am 18.9 16.9 12.8 67 3.4 N 15 19 8 10 1022.0 - 0.0
06/11:00am 17.0 14.4 12.1 73 2.7 N 17 24 9 13 1022.5 - 0.0
06/10:30am 16.6 14.8 12.2 75 2.4 NNE 13 17 7 9 1022.7 - 0.0
06/10:00am 15.2 13.3 11.9 81 1.8 NNE 13 17 7 9 1022.8 - 0.0
06/09:30am 13.6 12.4 11.5 87 1.1 N 9 11 5 6 1022.7 - 0.0
06/09:00am 12.7 10.9 10.8 88 1.0 NNE 11 13 6 7 1022.6 1022.6 0.6
06/08:30am 11.0 8.6 10.0 93 0.5 N 13 15 7 8 1022.4 - 0.6
06/08:00am 10.0 8.2 9.4 96 0.3 N 9 11 5 6 1022.2 - 0.6
06/07:30am 9.4 7.0 8.8 96 0.3 N 11 13 6 7 1022.0 - 0.6
06/07:00am 9.1 6.3 8.7 97 0.2 N 13 13 7 7 1021.9 - 0.6
06/06:30am 9.4 7.1 9.0 97 0.2 N 11 13 6 7 1021.5 - 0.6
06/06:00am 10.0 7.8 9.4 96 0.3 N 11 13 6 7 1021.3 1021.3 0.6
06/05:30am 10.5 8.4 9.9 96 0.3 NE 11 13 6 7 1021.2 - 0.6
06/05:00am 10.3 8.6 9.9 97 0.2 NNE 9 11 5 6 1021.3 - 0.6
06/04:30am 9.8 7.6 9.4 97 0.2 N 11 11 6 6 1021.2 - 0.6
06/04:00am 10.4 8.7 9.8 96 0.3 N 9 9 5 5 1021.1 - 0.6
06/03:30am 10.3 8.7 10.1 99 0.1 NNE 9 11 5 6 1021.1 - 0.6
06/03:00am 9.7 7.9 9.3 97 0.2 N 9 11 5 6 1021.3 1021.3 0.6
06/02:29am 10.1 8.4 9.7 97 0.2 NNE 9 11 5 6 1021.3 - 0.6
06/02:00am 9.9 8.2 9.7 99 0.1 NNE 9 11 5 6 1021.5 - 0.6
06/01:30am 9.8 8.0 9.6 99 0.1 N 9 11 5 6 1021.7 - 0.6
06/01:00am 10.4 9.2 10.2 99 0.1 N 7 9 4 5 1021.7 - 0.6
06/12:30am 11.0 9.5 10.6 97 0.2 N 9 15 5 8 1021.7 - 0.6
06/12:00am 11.7 10.8 11.3 97 0.2 NNE 7 9 4 5 1021.8 1021.8 0.6
 
Date/Time
WST
Tmp

°C
App
Tmp
°C
Dew
Point
°C
Rel
Hum
%
Delta-T

°C
Wind Press
QNH
hPa
Press
MSL
hPa
Rain
since
9 am
mm
Dir
 
Spd
km/h
Gust
km/h
Spd
kts
Gust
kts
05/11:30pm 11.0 9.5 10.6 97 0.2 NNE 9 9 5 5 1021.9 - 0.6
05/11:00pm 10.5 9.3 10.3 99 0.1 NE 7 9 4 5 1022.1 - 0.6
05/10:43pm 10.6 9.0 10.2 97 0.2 ENE 9 11 5 6 1022.1 - 0.6
05/10:30pm 10.6 9.6 10.4 99 0.1 NNE 6 7 3 4 1022.1 - 0.6
05/10:14pm 11.0 9.9 10.8 99 0.1 NNE 7 9 4 5 1022.2 - 0.6
05/10:00pm 11.2 10.2 11.0 99 0.1 NNE 7 9 4 5 1022.2 - 0.6
05/09:52pm 11.3 10.3 11.1 99 0.1 NNE 7 9 4 5 1022.3 - 0.6
05/09:43pm 11.5 10.5 11.1 97 0.2 NNE 7 9 4 5 1022.2 - 0.6
05/09:30pm 11.6 10.7 11.2 97 0.2 NNE 7 9 4 5 1022.1 - 0.6
05/09:00pm 12.0 11.2 11.6 97 0.2 NE 7 11 4 6 1022.3 1022.3 0.6
05/08:30pm 12.2 12.8 11.8 97 0.2 CALM 0 0 0 0 1022.2 - 0.6
05/08:00pm 12.6 12.1 12.2 97 0.2 NE 6 7 3 4 1022.1 - 0.6
05/07:30pm 13.4 13.1 12.8 96 0.3 NE 6 7 3 4 1021.9 - 0.6
05/07:00pm 14.0 13.8 13.5 97 0.3 NE 7 7 4 4 1021.6 - 0.6
05/06:30pm 14.5 14.4 13.8 96 0.4 NE 7 11 4 6 1021.4 - 0.6
05/06:00pm 15.1 14.7 14.2 94 0.5 NE 9 13 5 7 1021.2 1021.2 0.6
05/05:30pm 15.3 15.3 14.2 93 0.6 E 7 11 4 6 1021.1 - 0.4
05/05:00pm 15.4 15.6 14.3 93 0.6 S 6 9 3 5 1021.2 - 0.4
05/04:30pm 15.4 15.5 14.5 94 0.5 SSE 7 11 4 6 1021.0 - 0.4
05/04:17pm 15.4 15.5 14.5 94 0.5 S 7 9 4 5 1020.9 - 0.4
05/04:00pm 15.2 14.9 14.3 94 0.5 WSW 9 13 5 7 1021.1 - 0.4
05/03:45pm 15.5 14.7 14.1 91 0.8 SW 11 17 6 9 1020.9 - 0.2
05/03:30pm 15.6 14.6 14.5 93 0.6 SSE 13 17 7 9 1020.7 - 0.2
05/03:00pm 15.6 14.6 14.7 94 0.5 S 13 19 7 10 1020.7 1020.7 0.2
05/02:30pm 15.9 14.0 14.3 90 0.9 W 17 24 9 13 1020.9 - 0.0
05/02:00pm 16.2 14.1 14.8 91 0.8 WSW 19 26 10 14 1020.8 - 0.0
05/01:42pm 16.4 13.8 15.0 91 0.8 WSW 22 30 12 16 1020.7 - 0.0
05/01:30pm 17.2 15.5 14.6 85 1.5 SW 17 22 9 12 1020.6 - 0.0
05/01:00pm 18.3 15.9 14.5 78 2.2 SW 20 26 11 14 1020.7 - 0.0
05/12:30pm 19.9 18.4 13.0 64 3.9 N 13 22 7 12 1020.8 - 0.0
05/12:00pm 19.2 17.4 13.4 69 3.3 N 15 24 8 13 1021.3 1021.3 0.0
05/11:30am 18.5 16.8 13.6 73 2.8 N 15 19 8 10 1021.6 - 0.0
05/11:00am 17.7 16.4 13.8 78 2.2 N 13 17 7 9 1021.9 - 0.0
05/10:30am 16.3 15.0 13.6 84 1.5 NNE 13 17 7 9 1022.2 - 0.0
05/10:00am 15.3 13.8 13.1 87 1.2 N 13 17 7 9 1022.3 - 0.0
05/09:30am 14.0 13.2 12.9 93 0.6 N 9 11 5 6 1022.2 - 0.0
05/09:21am 13.4 12.6 12.8 96 0.3 N 9 13 5 7 1022.1 - 0.0
05/09:00am 12.4 10.9 12.0 97 0.2 NNE 11 15 6 8 1022.1 1022.1 2.4
05/08:45am 12.1 10.5 11.7 97 0.2 N 11 15 6 8 1022.2 - 2.4
05/08:30am 11.4 9.6 11.0 97 0.2 N 11 13 6 7 1022.2 - 2.4
05/08:00am 10.7 9.2 10.5 99 0.1 N 9 13 5 7 1022.0 - 2.4
05/07:30am 10.7 9.2 10.5 99 0.1 NNE 9 11 5 6 1021.7 - 2.4
05/07:00am 10.2 8.9 10.0 99 0.1 N 7 9 4 5 1021.5 - 2.4
05/06:30am 10.7 9.6 10.5 99 0.1 N 7 9 4 5 1021.3 - 2.4
05/06:00am 11.1 9.7 10.9 99 0.1 N 9 9 5 5 1021.0 1021.0 2.4
05/05:30am 11.8 11.0 11.6 99 0.1 NNE 7 11 4 6 1020.9 - 2.4
05/05:00am 12.3 11.2 12.1 99 0.1 NNE 9 11 5 6 1020.8 - 2.4
05/04:30am 12.2 11.7 12.0 99 0.1 NE 6 9 3 5 1020.9 - 2.4
05/04:00am 11.6 10.9 11.4 99 0.1 NNE 6 9 3 5 1021.0 - 2.4
05/03:30am 11.8 11.2 11.8 100 0.0 N 6 7 3 4 1021.1 - 2.4
05/03:00am 12.4 11.9 12.0 97 0.2 N 6 7 3 4 1021.1 1021.1 2.4
05/02:38am 12.3 11.2 11.9 97 0.2 NNE 9 9 5 5 1021.1 - 2.4
05/02:30am 12.4 11.8 12.2 99 0.1 NNE 7 9 4 5 1021.0 - 2.4
05/02:21am 12.8 12.2 12.4 97 0.2 NNE 7 9 4 5 1021.1 - 2.2
05/02:00am 13.4 13.3 13.2 99 0.1 NNE 6 7 3 4 1021.2 - 2.2
05/01:30am 13.5 13.8 13.3 99 0.1 E 4 9 2 5 1021.3 - 2.2
05/01:00am 13.6 12.5 13.2 97 0.2 NE 11 13 6 7 1021.2 - 2.2
05/12:39am 13.6 12.9 13.2 97 0.2 ENE 9 11 5 6 1021.5 - 2.2
05/12:30am 13.7 13.0 13.2 97 0.3 ENE 9 11 5 6 1021.6 - 2.2
05/12:00am 14.1 13.2 13.6 97 0.3 ENE 11 11 6 6 1021.7 1021.7 2.2
 
Date/Time
WST
Tmp

°C
App
Tmp
°C
Dew
Point
°C
Rel
Hum
%
Delta-T

°C
Wind Press
QNH
hPa
Press
MSL
hPa
Rain
since
9 am
mm
Dir
 
Spd
km/h
Gust
km/h
Spd
kts
Gust
kts
04/11:53pm 14.1 13.6 13.7 97 0.2 ENE 9 11 5 6 1021.7 - 2.2
04/11:30pm 14.3 14.4 13.8 97 0.3 W 6 9 3 5 1021.9 - 2.2
04/11:21pm 14.2 14.3 13.8 97 0.2 NW 6 9 3 5 1022.0 - 2.2
04/11:00pm 13.7 13.0 13.3 97 0.2 N 9 11 5 6 1021.9 - 2.0
04/10:30pm 13.4 12.6 13.0 97 0.2 N 9 9 5 5 1021.9 - 2.0
04/10:00pm 13.7 13.4 13.2 97 0.3 N 7 9 4 5 1022.0 - 2.0
04/09:30pm 13.9 13.9 13.5 97 0.2 N 6 7 3 4 1022.0 - 2.0
04/09:00pm 14.8 15.0 14.1 96 0.4 W 6 7 3 4 1022.0 1022.0 1.8
04/08:30pm 15.1 14.3 14.0 93 0.6 WNW 11 13 6 7 1022.1 - 1.8
04/08:00pm 14.6 14.1 13.9 96 0.4 NW 9 17 5 9 1022.0 - 1.8
04/07:30pm 14.6 14.1 13.9 96 0.4 NNE 9 11 5 6 1021.6 - 1.8
04/07:00pm 14.5 14.1 14.0 97 0.3 W 9 11 5 6 1021.6 - 1.8
04/06:30pm 14.5 15.7 13.8 96 0.4 CALM 0 0 0 0 1021.5 - 1.8
04/06:00pm 14.8 14.9 13.9 94 0.5 WSW 6 7 3 4 1021.3 1021.3 1.8
04/05:30pm 16.0 15.7 14.4 90 0.9 WSW 9 11 5 6 1021.2 - 1.8
04/05:00pm 16.4 16.1 14.3 87 1.2 NW 9 13 5 7 1021.1 - 1.6
04/04:30pm 16.1 15.0 14.3 89 1.0 WNW 13 19 7 10 1021.3 - 1.6
04/04:22pm 16.0 14.9 14.4 90 0.9 WNW 13 17 7 9 1021.3 - 1.6
04/04:00pm 17.3 14.6 14.5 83 1.6 WNW 22 30 12 16 1021.5 - 0.2
04/03:30pm 18.6 17.0 12.7 68 3.3 WSW 13 17 7 9 1021.1 - 0.2
04/03:00pm 17.9 13.8 12.7 71 2.9 WSW 26 33 14 18 1021.0 1021.0 0.2

Latest Capital City Observations: Canberra | Sydney | Melbourne | Brisbane | Adelaide | Perth | Hobart | Darwin

Other Formats:

Comma delimited format used in spreadsheet applications
http://www.bom.gov.au/fwo/IDW60901/IDW60901.94610.axf

JavaScript Object Notation format (JSON) in row-major order
http://www.bom.gov.au/fwo/IDW60901/IDW60901.94610.json